Time;durP1;ratioP1;P1;durP2;ratioP2;P2;SDS_P1;SDS_P2;PMS_P1;PMS_P2;Temp;Humidity;BMP_temperature;BMP_pressure;BME280_temperature;BME280_humidity;BME280_pressure;Samples;Min_cycle;Max_cycle;Signal;HPM_P1;HPM_P2
2021/09/24 00:00:47;;;;;;;24.30;4.37;;;13.90;99.90;;;;;;5057463;28;20456;-72
2021/09/24 00:03:14;;;;;;;18.90;3.37;;;13.80;99.90;;;;;;5057648;28;20773;-72
2021/09/24 00:05:40;;;;;;;24.20;4.60;;;13.80;99.90;;;;;;5057851;28;20462;-73
2021/09/24 00:08:08;;;;;;;18.70;3.83;;;13.80;99.90;;;;;;5057462;28;20493;-72
2021/09/24 00:10:35;;;;;;;20.67;4.00;;;13.70;99.90;;;;;;5057024;28;21027;-72
2021/09/24 00:13:02;;;;;;;15.90;3.13;;;13.70;99.90;;;;;;5057606;28;20465;-72
2021/09/24 00:15:29;;;;;;;21.57;3.60;;;13.70;99.90;;;;;;5056521;28;20491;-72
2021/09/24 00:17:56;;;;;;;23.43;3.93;;;13.70;99.90;;;;;;5057687;28;20912;-72
2021/09/24 00:20:23;;;;;;;20.30;4.10;;;13.70;99.90;;;;;;5057134;28;20476;-72
2021/09/24 00:22:51;;;;;;;19.13;3.80;;;13.60;99.90;;;;;;5056828;28;20460;-74
2021/09/24 00:25:21;;;;;;;17.47;3.47;;;13.60;99.90;;;;;;5057085;28;20456;-73
2021/09/24 00:27:47;;;;;;;17.87;3.13;;;13.60;99.90;;;;;;5057083;28;20459;-72
2021/09/24 00:30:15;;;;;;;19.53;3.77;;;13.60;99.90;;;;;;5057107;28;20493;-72
2021/09/24 00:32:41;;;;;;;17.73;3.20;;;13.60;99.90;;;;;;5056923;28;20486;-72
2021/09/24 00:35:09;;;;;;;18.70;4.40;;;13.50;99.90;;;;;;5056654;28;20526;-73
2021/09/24 00:37:36;;;;;;;20.23;4.10;;;13.50;99.90;;;;;;5056886;28;20549;-73
2021/09/24 00:40:05;;;;;;;14.87;3.33;;;13.50;99.90;;;;;;5056624;28;20451;-72
2021/09/24 00:42:33;;;;;;;26.47;5.30;;;13.50;99.90;;;;;;5058186;28;20469;-73
2021/09/24 00:44:59;;;;;;;14.90;3.60;;;13.40;99.90;;;;;;5058813;28;20461;-72
2021/09/24 00:47:27;;;;;;;21.10;4.40;;;13.50;99.90;;;;;;5060528;28;20806;-72
2021/09/24 00:49:54;;;;;;;26.50;4.07;;;13.40;99.90;;;;;;5060152;28;20476;-71
2021/09/24 00:52:21;;;;;;;16.07;4.20;;;13.40;99.90;;;;;;5056619;28;20464;-73
2021/09/24 00:54:49;;;;;;;23.53;4.57;;;13.40;99.90;;;;;;5056557;28;20514;-71
2021/09/24 00:57:17;;;;;;;21.20;4.50;;;13.30;99.90;;;;;;5056489;28;20455;-73
2021/09/24 00:59:47;;;;;;;10.63;3.10;;;13.30;99.90;;;;;;5056835;28;20452;-75
2021/09/24 01:02:15;;;;;;;26.63;3.30;;;13.30;99.90;;;;;;5056634;28;20461;-72
2021/09/24 01:04:42;;;;;;;19.80;3.90;;;13.30;99.90;;;;;;5056002;28;20465;-73
2021/09/24 01:07:12;;;;;;;19.70;3.50;;;13.30;99.90;;;;;;5056402;28;20460;-72
2021/09/24 01:09:39;;;;;;;19.07;4.20;;;13.30;99.90;;;;;;5056421;28;20479;-73
2021/09/24 01:12:08;;;;;;;15.87;4.10;;;13.30;99.90;;;;;;5056339;28;20664;-72
2021/09/24 01:14:36;;;;;;;19.63;4.20;;;13.30;99.90;;;;;;5056125;28;20466;-73
2021/09/24 01:17:05;;;;;;;14.37;4.07;;;13.30;99.90;;;;;;5056169;28;20436;-73
2021/09/24 01:19:31;;;;;;;20.73;5.00;;;13.30;99.90;;;;;;5056200;28;20648;-73
2021/09/24 01:22:00;;;;;;;20.63;4.07;;;13.30;99.90;;;;;;5055995;28;20518;-73
2021/09/24 01:24:27;;;;;;;26.30;4.17;;;13.40;99.90;;;;;;5056017;28;20460;-72
2021/09/24 01:26:56;;;;;;;20.13;3.40;;;13.40;99.90;;;;;;5055950;28;20460;-73
2021/09/24 01:29:24;;;;;;;19.70;4.20;;;13.30;99.90;;;;;;5055693;28;20492;-73
2021/09/24 01:31:51;;;;;;;21.53;3.77;;;13.40;99.90;;;;;;5055757;28;20468;-72
2021/09/24 01:34:18;;;;;;;16.20;3.63;;;13.30;99.90;;;;;;5055526;28;20465;-72
2021/09/24 01:36:44;;;;;;;19.83;3.27;;;13.40;99.90;;;;;;5055597;28;20456;-74
2021/09/24 01:39:12;;;;;;;23.37;3.30;;;13.40;99.90;;;;;;5055639;28;20453;-73
2021/09/24 01:41:44;;;;;;;19.07;3.87;;;13.40;99.90;;;;;;5055913;28;20633;-72
2021/09/24 01:44:11;;;;;;;15.37;3.10;;;13.40;99.90;;;;;;5055700;28;20506;-73
2021/09/24 01:46:41;;;;;;;15.10;3.43;;;13.30;99.90;;;;;;5055994;28;20526;-72
2021/09/24 01:49:09;;;;;;;19.47;4.57;;;13.30;99.90;;;;;;5055461;28;20484;-73
2021/09/24 01:51:37;;;;;;;11.33;3.30;;;13.30;99.90;;;;;;5055382;28;20456;-74
2021/09/24 01:54:04;;;;;;;22.33;3.97;;;13.40;99.90;;;;;;5054887;28;20475;-73
2021/09/24 01:56:32;;;;;;;19.03;3.70;;;13.30;99.90;;;;;;5054857;28;20507;-73
2021/09/24 01:58:59;;;;;;;16.30;3.33;;;13.40;99.90;;;;;;5054989;28;20463;-72
2021/09/24 02:01:26;;;;;;;14.07;3.67;;;13.30;99.90;;;;;;5054603;28;20455;-73
2021/09/24 02:03:53;;;;;;;18.50;3.50;;;13.40;99.90;;;;;;5055244;28;20537;-73
2021/09/24 02:06:19;;;;;;;12.73;2.60;;;13.30;99.90;;;;;;5054354;28;20466;-73
2021/09/24 02:08:46;;;;;;;19.17;2.83;;;13.30;99.90;;;;;;5055034;28;20793;-74
2021/09/24 02:11:13;;;;;;;13.57;3.43;;;13.30;99.90;;;;;;5054619;28;20782;-73
2021/09/24 02:13:42;;;;;;;14.97;3.70;;;13.30;99.90;;;;;;5054752;28;20472;-72
2021/09/24 02:16:11;;;;;;;18.50;4.13;;;13.40;99.90;;;;;;5054219;28;20540;-72
2021/09/24 02:18:39;;;;;;;22.00;3.37;;;13.30;99.90;;;;;;5054956;28;20466;-74
2021/09/24 02:21:06;;;;;;;15.33;3.07;;;13.30;99.90;;;;;;5054558;28;20453;-73
2021/09/24 02:23:33;;;;;;;18.27;2.73;;;13.30;99.90;;;;;;5054683;28;20456;-73
2021/09/24 02:26:00;;;;;;;25.57;4.77;;;13.30;99.90;;;;;;5054703;28;20473;-72
2021/09/24 02:28:27;;;;;;;21.80;4.30;;;13.30;99.90;;;;;;5054886;28;20467;-73
2021/09/24 02:30:55;;;;;;;19.77;3.30;;;13.30;99.90;;;;;;5054503;28;20484;-73
2021/09/24 02:33:21;;;;;;;18.10;3.73;;;13.20;99.90;;;;;;5054263;28;20989;-72
2021/09/24 02:35:48;;;;;;;19.07;3.90;;;13.20;99.90;;;;;;5054907;28;20460;-72
2021/09/24 02:38:15;;;;;;;12.77;3.47;;;13.30;99.90;;;;;;5054473;28;20465;-72
2021/09/24 02:40:42;;;;;;;21.23;3.13;;;13.30;99.90;;;;;;5054775;28;20831;-71
2021/09/24 02:43:08;;;;;;;13.40;3.37;;;13.20;99.90;;;;;;5054753;28;20837;-72
2021/09/24 02:45:35;;;;;;;15.33;4.57;;;13.30;99.90;;;;;;5054621;28;20776;-72
2021/09/24 02:48:04;;;;;;;16.53;3.67;;;13.20;99.90;;;;;;5054488;28;20463;-73
2021/09/24 02:50:31;;;;;;;15.37;2.90;;;13.20;99.90;;;;;;5054294;28;20481;-72
2021/09/24 02:52:58;;;;;;;19.87;3.50;;;13.20;99.90;;;;;;5054476;28;20486;-72
2021/09/24 02:55:24;;;;;;;16.47;3.57;;;13.30;99.90;;;;;;5054541;28;20455;-71
2021/09/24 02:57:51;;;;;;;21.77;4.10;;;13.20;99.90;;;;;;5054321;28;20467;-72
2021/09/24 03:00:18;;;;;;;13.90;3.37;;;13.20;99.90;;;;;;5054315;28;20452;-72
2021/09/24 03:02:45;;;;;;;13.83;3.07;;;13.20;99.90;;;;;;5054137;28;20912;-73
2021/09/24 03:05:13;;;;;;;18.10;3.40;;;13.20;99.90;;;;;;5053755;28;20480;-73
2021/09/24 03:07:40;;;;;;;14.30;3.70;;;13.20;99.90;;;;;;5054394;28;20806;-72
2021/09/24 03:10:08;;;;;;;15.53;3.43;;;13.20;99.90;;;;;;5054309;28;20476;-72
2021/09/24 03:12:34;;;;;;;17.93;4.03;;;13.20;99.90;;;;;;5054223;28;20513;-72
2021/09/24 03:15:01;;;;;;;18.97;3.43;;;13.20;99.90;;;;;;5054280;28;20577;-73
2021/09/24 03:17:28;;;;;;;21.33;4.20;;;13.20;99.90;;;;;;5057227;28;20493;-73
2021/09/24 03:19:54;;;;;;;20.10;3.57;;;13.20;99.90;;;;;;5058495;28;20838;-72
2021/09/24 03:22:22;;;;;;;11.70;2.73;;;13.20;99.90;;;;;;5058008;28;20452;-73
2021/09/24 03:24:49;;;;;;;17.50;2.77;;;13.30;99.90;;;;;;5058090;28;20463;-73
2021/09/24 03:27:16;;;;;;;17.83;4.10;;;13.30;99.90;;;;;;5058240;28;20459;-72
2021/09/24 03:29:43;;;;;;;22.90;4.30;;;13.30;99.90;;;;;;5058205;28;20520;-73
2021/09/24 03:32:10;;;;;;;18.90;3.10;;;13.30;99.90;;;;;;5058112;28;20461;-73
2021/09/24 03:34:36;;;;;;;21.00;3.70;;;13.30;99.90;;;;;;5057774;28;20463;-72
2021/09/24 03:37:03;;;;;;;12.57;3.10;;;13.30;99.90;;;;;;5058354;28;20461;-72
2021/09/24 03:39:31;;;;;;;12.23;3.07;;;13.30;99.90;;;;;;5060390;28;20842;-74
2021/09/24 03:41:58;;;;;;;15.30;3.47;;;13.30;99.90;;;;;;5061277;28;20818;-73
2021/09/24 03:44:25;;;;;;;22.17;3.50;;;13.30;99.90;;;;;;5062348;28;20461;-72
2021/09/24 03:46:51;;;;;;;18.10;3.70;;;13.30;99.90;;;;;;5061501;28;20463;-72
2021/09/24 03:49:18;;;;;;;18.00;2.90;;;13.30;99.90;;;;;;5059733;28;20459;-72
2021/09/24 03:51:45;;;;;;;14.90;3.00;;;13.30;99.90;;;;;;5060355;28;20851;-72
2021/09/24 03:54:11;;;;;;;19.57;3.90;;;13.30;99.90;;;;;;5063507;28;20456;-71
2021/09/24 03:56:39;;;;;;;11.98;2.78;;;13.30;99.90;;;;;;5060513;28;20454;-73
2021/09/24 03:59:06;;;;;;;17.53;3.47;;;13.30;99.90;;;;;;5059144;28;20240;-72
2021/09/24 04:01:33;;;;;;;18.13;3.50;;;13.30;99.90;;;;;;5057241;28;20462;-73
2021/09/24 04:03:59;;;;;;;16.30;3.43;;;13.30;99.90;;;;;;5057685;28;20469;-72
2021/09/24 04:06:26;;;;;;;18.03;3.70;;;13.30;99.90;;;;;;5057282;28;20467;-72
2021/09/24 04:08:53;;;;;;;21.37;2.80;;;13.40;99.90;;;;;;5056744;28;20891;-73
2021/09/24 04:11:19;;;;;;;13.90;3.27;;;13.30;99.90;;;;;;5056898;28;20966;-73
2021/09/24 04:13:48;;;;;;;15.50;3.80;;;13.20;99.90;;;;;;5057081;28;20466;-73
2021/09/24 04:16:15;;;;;;;11.93;3.27;;;13.20;99.90;;;;;;5056868;28;20483;-73
2021/09/24 04:18:41;;;;;;;18.80;3.87;;;13.20;99.90;;;;;;5057102;28;20468;-72
2021/09/24 04:21:08;;;;;;;17.73;4.17;;;13.20;99.90;;;;;;5056917;28;20787;-72
2021/09/24 04:23:35;;;;;;;16.07;3.77;;;13.10;99.90;;;;;;5056916;28;20468;-71
2021/09/24 04:26:02;;;;;;;15.33;3.73;;;13.10;99.90;;;;;;5056986;28;20517;-71
2021/09/24 04:28:29;;;;;;;16.07;3.77;;;13.10;99.90;;;;;;5056041;28;20589;-71
2021/09/24 04:30:57;;;;;;;14.60;3.63;;;13.10;99.90;;;;;;5056691;28;20476;-71
2021/09/24 04:33:24;;;;;;;17.33;4.17;;;13.00;99.90;;;;;;5056993;28;20455;-72
2021/09/24 04:35:51;;;;;;;24.13;4.77;;;13.10;99.90;;;;;;5057071;28;20478;-72
2021/09/24 04:38:18;;;;;;;13.50;3.90;;;13.10;99.90;;;;;;5057539;28;20469;-71
2021/09/24 04:40:44;;;;;;;17.17;3.60;;;13.10;99.90;;;;;;5056722;28;20458;-71
2021/09/24 04:43:11;;;;;;;14.80;3.23;;;13.10;99.90;;;;;;5056719;28;20471;-72
2021/09/24 04:45:38;;;;;;;24.57;3.20;;;13.10;99.90;;;;;;5056167;28;20470;-72
2021/09/24 04:48:07;;;;;;;21.23;4.10;;;13.10;99.90;;;;;;5056735;28;20455;-72
2021/09/24 04:50:34;;;;;;;12.18;3.40;;;13.10;99.90;;;;;;5056186;28;20471;-72
2021/09/24 04:53:01;;;;;;;12.93;2.87;;;13.10;99.90;;;;;;5055989;28;20210;-71
2021/09/24 04:55:28;;;;;;;10.53;3.80;;;13.10;99.90;;;;;;5056500;28;20537;-71
2021/09/24 04:57:55;;;;;;;16.20;3.50;;;13.10;99.90;;;;;;5056417;28;20461;-71
2021/09/24 05:00:21;;;;;;;20.27;4.13;;;13.10;99.90;;;;;;5056025;28;20463;-72
2021/09/24 05:02:48;;;;;;;22.63;4.20;;;13.10;99.90;;;;;;5056397;28;20467;-72
2021/09/24 05:05:16;;;;;;;21.77;3.47;;;13.10;99.90;;;;;;5056069;28;20457;-72
2021/09/24 05:07:43;;;;;;;19.73;4.33;;;13.10;99.90;;;;;;5056300;28;20830;-72
2021/09/24 05:10:10;;;;;;;12.10;3.70;;;13.10;99.90;;;;;;5056034;28;20511;-73
2021/09/24 05:12:37;;;;;;;13.83;3.33;;;13.10;99.90;;;;;;5055770;28;20460;-72
2021/09/24 05:15:05;;;;;;;20.63;3.50;;;13.10;99.90;;;;;;5055748;28;20494;-72
2021/09/24 05:17:34;;;;;;;22.90;3.50;;;13.00;99.90;;;;;;5056029;28;20468;-72
2021/09/24 05:20:00;;;;;;;21.70;3.60;;;13.10;99.90;;;;;;5055781;28;20802;-73
2021/09/24 05:22:28;;;;;;;16.77;3.93;;;13.10;99.90;;;;;;5055928;28;20452;-72
2021/09/24 05:24:55;;;;;;;17.97;3.87;;;13.00;99.90;;;;;;5055748;28;20910;-72
2021/09/24 05:27:22;;;;;;;16.20;4.23;;;13.10;99.90;;;;;;5055642;28;20920;-73
2021/09/24 05:29:49;;;;;;;17.13;3.37;;;13.10;99.90;;;;;;5055557;28;20455;-72
2021/09/24 05:32:17;;;;;;;12.77;3.90;;;13.10;99.90;;;;;;5055547;28;20484;-72
2021/09/24 05:34:47;;;;;;;19.23;3.73;;;13.10;99.90;;;;;;5055457;28;20871;-72
2021/09/24 05:37:13;;;;;;;19.10;4.67;;;13.10;99.90;;;;;;5055472;28;20466;-72
2021/09/24 05:39:43;;;;;;;15.27;3.17;;;13.10;99.90;;;;;;5055182;28;20456;-72
2021/09/24 05:42:10;;;;;;;32.47;4.50;;;13.10;99.90;;;;;;5055078;28;20734;-73
2021/09/24 05:44:37;;;;;;;15.73;4.03;;;13.10;99.90;;;;;;5055289;28;20456;-73
2021/09/24 05:47:04;;;;;;;13.53;2.80;;;13.10;99.90;;;;;;5054831;28;20937;-72
2021/09/24 05:49:31;;;;;;;14.93;3.90;;;13.10;99.90;;;;;;5055261;28;20455;-72
2021/09/24 05:51:58;;;;;;;23.50;3.57;;;13.10;99.90;;;;;;5054646;28;20558;-72
2021/09/24 05:54:28;;;;;;;16.63;3.67;;;13.20;99.90;;;;;;5055396;28;20464;-72
2021/09/24 05:56:56;;;;;;;17.50;3.50;;;13.20;99.90;;;;;;5054766;28;20466;-72
2021/09/24 05:59:23;;;;;;;22.47;4.50;;;13.20;99.90;;;;;;5054994;28;20456;-72
2021/09/24 06:01:50;;;;;;;20.80;3.00;;;13.20;99.90;;;;;;5054969;28;20459;-72
2021/09/24 06:04:18;;;;;;;25.67;4.03;;;13.20;99.90;;;;;;5054775;28;20459;-72
2021/09/24 06:06:45;;;;;;;16.87;3.37;;;13.10;99.90;;;;;;5055219;28;20790;-72
2021/09/24 06:09:12;;;;;;;24.00;4.20;;;13.10;99.90;;;;;;5055022;28;20460;-72
2021/09/24 06:11:39;;;;;;;12.67;3.37;;;13.10;99.90;;;;;;5054895;28;20480;-72
2021/09/24 06:14:07;;;;;;;28.47;3.67;;;13.10;99.90;;;;;;5054659;28;20470;-72
2021/09/24 06:16:34;;;;;;;21.70;3.83;;;13.10;99.90;;;;;;5054173;28;20491;-72
2021/09/24 06:19:00;;;;;;;19.30;3.30;;;13.10;99.90;;;;;;5054830;28;20483;-73
2021/09/24 06:21:29;;;;;;;22.07;4.00;;;13.10;99.90;;;;;;5054872;28;20466;-72
2021/09/24 06:23:56;;;;;;;17.63;3.73;;;13.10;99.90;;;;;;5054297;28;20473;-72
2021/09/24 06:26:23;;;;;;;21.27;4.33;;;13.10;99.90;;;;;;5054795;28;20468;-72
2021/09/24 06:28:49;;;;;;;16.60;2.80;;;13.10;99.90;;;;;;5054684;28;20453;-73
2021/09/24 06:31:18;;;;;;;15.23;3.67;;;13.00;99.90;;;;;;5054626;28;20488;-73
2021/09/24 06:33:44;;;;;;;20.23;4.80;;;13.00;99.90;;;;;;5054581;28;20485;-72
2021/09/24 06:36:13;;;;;;;17.47;3.57;;;13.00;99.90;;;;;;5054939;28;20463;-72
2021/09/24 06:38:40;;;;;;;21.40;3.20;;;13.00;99.90;;;;;;5054794;28;20860;-72
2021/09/24 06:41:07;;;;;;;21.10;4.03;;;13.00;99.90;;;;;;5054662;28;20467;-72
2021/09/24 06:43:33;;;;;;;16.80;5.17;;;13.00;99.90;;;;;;5054321;28;20797;-72
2021/09/24 06:46:00;;;;;;;18.47;4.33;;;13.00;99.90;;;;;;5054365;28;20472;-72
2021/09/24 06:48:28;;;;;;;15.07;2.90;;;13.00;99.90;;;;;;5054663;28;20463;-71
2021/09/24 06:50:55;;;;;;;22.23;4.00;;;13.00;99.90;;;;;;5053335;28;20629;-72
2021/09/24 06:53:22;;;;;;;23.90;4.97;;;13.00;99.90;;;;;;5054661;28;20474;-72
2021/09/24 06:55:49;;;;;;;14.63;3.70;;;13.00;99.90;;;;;;5053836;28;20912;-71
2021/09/24 06:58:15;;;;;;;20.57;3.07;;;13.00;99.90;;;;;;5054269;28;20540;-74
2021/09/24 07:00:42;;;;;;;17.37;3.70;;;13.00;99.90;;;;;;5054457;28;20460;-72
2021/09/24 07:03:09;;;;;;;20.20;4.00;;;13.10;99.90;;;;;;5054344;28;20760;-72
2021/09/24 07:05:40;;;;;;;15.73;3.73;;;13.10;99.90;;;;;;5054142;28;20475;-73
2021/09/24 07:08:06;;;;;;;15.03;3.47;;;13.10;99.90;;;;;;5054097;28;20440;-72
2021/09/24 07:10:33;;;;;;;15.40;3.33;;;13.20;99.90;;;;;;5053850;28;20463;-72
2021/09/24 07:13:00;;;;;;;21.00;3.83;;;13.20;99.90;;;;;;5054059;28;20488;-74
2021/09/24 07:15:27;;;;;;;14.30;3.20;;;13.20;99.90;;;;;;5054018;28;20488;-72
2021/09/24 07:17:53;;;;;;;26.47;4.27;;;13.20;99.90;;;;;;5054866;28;20467;-72
2021/09/24 07:20:21;;;;;;;16.03;3.30;;;13.20;99.90;;;;;;5054657;28;20462;-72
2021/09/24 07:22:50;;;;;;;16.73;3.57;;;13.30;99.90;;;;;;5054410;28;20491;-74
2021/09/24 07:25:17;;;;;;;16.23;4.10;;;13.30;99.90;;;;;;5054795;28;20542;-72
2021/09/24 07:27:43;;;;;;;23.57;4.10;;;13.30;99.90;;;;;;5055197;28;20459;-72
2021/09/24 07:30:12;;;;;;;22.90;3.40;;;13.30;99.90;;;;;;5055646;28;20517;-73
2021/09/24 07:32:41;;;;;;;18.40;3.60;;;13.40;99.90;;;;;;5055338;28;20553;-73
2021/09/24 07:35:08;;;;;;;18.23;3.10;;;13.50;99.90;;;;;;5055367;28;20458;-73
2021/09/24 07:37:35;;;;;;;14.03;3.43;;;13.60;99.90;;;;;;5055350;28;20458;-73
2021/09/24 07:40:04;;;;;;;15.53;3.40;;;13.60;99.90;;;;;;5055780;28;20460;-72
2021/09/24 07:42:31;;;;;;;11.47;3.10;;;13.70;99.90;;;;;;5055485;28;20763;-74
2021/09/24 07:44:57;;;;;;;14.73;5.03;;;13.80;99.90;;;;;;5054971;28;20452;-73
2021/09/24 07:47:24;;;;;;;16.23;4.10;;;13.90;99.90;;;;;;5054220;28;20941;-73
2021/09/24 07:49:51;;;;;;;18.47;3.40;;;13.90;99.90;;;;;;5054065;28;20469;-71
2021/09/24 07:52:17;;;;;;;16.90;4.63;;;14.00;99.90;;;;;;5053811;28;20479;-73
2021/09/24 07:54:44;;;;;;;15.43;2.87;;;14.00;99.90;;;;;;5053786;28;20494;-72
2021/09/24 07:57:13;;;;;;;20.57;4.23;;;14.10;99.90;;;;;;5053846;28;20462;-72
2021/09/24 07:59:42;;;;;;;22.93;3.73;;;14.20;99.90;;;;;;5053437;28;20506;-72
2021/09/24 08:02:09;;;;;;;17.57;3.50;;;14.30;99.90;;;;;;5053415;28;20512;-72
2021/09/24 08:04:36;;;;;;;12.23;3.30;;;14.30;99.90;;;;;;5056562;28;20854;-72
2021/09/24 08:07:05;;;;;;;12.43;2.70;;;14.40;99.90;;;;;;5057183;28;20773;-72
2021/09/24 08:09:31;;;;;;;16.10;3.33;;;14.40;99.90;;;;;;5056718;28;20460;-73
2021/09/24 08:12:00;;;;;;;14.67;4.10;;;14.50;99.90;;;;;;5057092;28;20473;-72
2021/09/24 08:14:28;;;;;;;17.20;4.13;;;14.50;99.90;;;;;;5057374;28;20484;-72
2021/09/24 08:16:55;;;;;;;16.47;3.70;;;14.70;99.90;;;;;;5057233;28;20465;-72
2021/09/24 08:19:21;;;;;;;10.00;3.63;;;14.70;99.90;;;;;;5056972;28;20466;-72
2021/09/24 08:21:48;;;;;;;17.60;3.53;;;14.80;99.90;;;;;;5057244;28;20459;-73
2021/09/24 08:24:15;;;;;;;16.80;3.63;;;14.90;99.90;;;;;;5057231;28;20521;-72
2021/09/24 08:26:42;;;;;;;13.43;2.83;;;14.90;99.90;;;;;;5056360;28;20462;-72
2021/09/24 08:29:08;;;;;;;13.73;3.60;;;14.90;99.90;;;;;;5056823;28;20467;-71
2021/09/24 08:31:36;;;;;;;11.10;2.50;;;14.90;99.90;;;;;;5056689;28;20567;-72
2021/09/24 08:34:05;;;;;;;15.40;3.57;;;15.00;99.90;;;;;;5056597;28;20462;-72
2021/09/24 08:36:33;;;;;;;27.40;3.70;;;15.10;99.90;;;;;;5056347;28;20939;-72
2021/09/24 08:39:00;;;;;;;16.83;3.60;;;15.30;99.90;;;;;;5056798;28;20505;-72
2021/09/24 08:41:29;;;;;;;11.80;3.30;;;15.30;99.90;;;;;;5056389;28;20457;-72
2021/09/24 08:43:57;;;;;;;10.33;2.87;;;15.50;99.90;;;;;;5056635;28;20458;-72
2021/09/24 08:46:24;;;;;;;11.87;3.33;;;15.50;99.90;;;;;;5056769;28;20460;-72
2021/09/24 08:48:53;;;;;;;27.63;4.63;;;15.60;99.90;;;;;;5056165;28;20571;-72
2021/09/24 08:51:19;;;;;;;13.60;3.50;;;15.70;99.90;;;;;;5056167;28;20476;-72
2021/09/24 08:53:46;;;;;;;13.23;2.60;;;15.70;99.90;;;;;;5056632;28;20466;-72
2021/09/24 08:56:14;;;;;;;11.20;3.37;;;15.80;99.90;;;;;;5056807;28;20455;-72
2021/09/24 08:58:41;;;;;;;9.67;2.70;;;15.80;99.90;;;;;;5055960;28;20456;-72
2021/09/24 09:01:08;;;;;;;10.63;2.97;;;15.80;99.90;;;;;;5057439;28;20978;-73
2021/09/24 09:03:40;;;;;;;14.67;3.40;;;15.80;99.90;;;;;;5055657;28;20459;-72
2021/09/24 09:06:09;;;;;;;10.30;3.37;;;15.80;99.90;;;;;;5055627;28;20460;-73
2021/09/24 09:08:37;;;;;;;21.60;3.60;;;15.80;99.90;;;;;;5055822;28;20463;-73
2021/09/24 09:11:07;;;;;;;11.60;2.90;;;15.90;99.90;;;;;;5056157;28;20474;-73
2021/09/24 09:13:37;;;;;;;10.37;2.90;;;16.00;99.90;;;;;;5055242;28;20464;-73
2021/09/24 09:16:08;;;;;;;11.53;3.00;;;16.00;99.90;;;;;;5055719;28;20483;-72
2021/09/24 09:18:37;;;;;;;16.90;3.63;;;16.20;99.90;;;;;;5056197;28;20447;-73
2021/09/24 09:21:07;;;;;;;16.07;3.80;;;16.20;99.90;;;;;;5056019;28;20765;-74
2021/09/24 09:23:37;;;;;;;10.10;3.50;;;16.20;99.90;;;;;;5055814;28;20739;-73
2021/09/24 09:26:07;;;;;;;9.67;3.20;;;16.10;99.90;;;;;;5056420;28;20770;-72
2021/09/24 09:28:37;;;;;;;17.17;2.70;;;16.10;99.90;;;;;;5056229;28;20459;-72
2021/09/24 09:31:16;;;;;;;11.00;2.73;;;16.20;99.90;;;;;;5055221;28;20470;-73
2021/09/24 09:33:43;;;;;;;12.50;2.73;;;16.20;99.90;;;;;;5055146;28;20475;-72
2021/09/24 09:36:10;;;;;;;16.97;2.77;;;16.30;99.90;;;;;;5055086;28;20463;-73
2021/09/24 09:38:41;;;;;;;18.97;4.80;;;16.40;99.90;;;;;;5055544;28;20462;-71
2021/09/24 09:41:11;;;;;;;14.27;3.60;;;16.30;99.90;;;;;;5055167;28;20455;-72
2021/09/24 09:43:39;;;;;;;18.57;3.80;;;16.50;99.90;;;;;;5055522;28;20456;-73
2021/09/24 09:46:09;;;;;;;10.60;3.80;;;16.50;99.90;;;;;;5055238;28;20517;-72
2021/09/24 09:48:37;;;;;;;18.10;3.03;;;16.50;99.90;;;;;;5054997;28;20459;-72
2021/09/24 09:51:04;;;;;;;10.03;2.70;;;16.50;99.90;;;;;;5055194;28;20459;-72
2021/09/24 09:53:33;;;;;;;13.53;3.40;;;16.50;99.90;;;;;;5054635;28;20480;-72
2021/09/24 09:56:04;;;;;;;7.83;3.10;;;16.60;99.90;;;;;;5055082;28;20455;-73
2021/09/24 09:58:33;;;;;;;7.20;2.93;;;16.70;99.90;;;;;;5054947;28;20542;-71
2021/09/24 10:01:06;;;;;;;14.80;3.43;;;16.70;99.90;;;;;;5054735;28;20769;-72
2021/09/24 10:03:36;;;;;;;12.50;3.50;;;16.70;99.90;;;;;;5054713;28;20535;-72
2021/09/24 10:06:05;;;;;;;17.23;3.37;;;16.60;99.90;;;;;;5054927;28;20444;-71
2021/09/24 10:08:33;;;;;;;10.63;2.70;;;16.60;99.90;;;;;;5054450;28;20471;-72
2021/09/24 10:11:12;;;;;;;16.07;3.90;;;16.60;99.90;;;;;;5054514;28;20468;-72
2021/09/24 10:13:53;;;;;;;13.80;2.50;;;16.60;99.90;;;;;;5054199;28;20472;-72
2021/09/24 10:16:21;;;;;;;13.93;3.50;;;16.60;99.90;;;;;;5054218;28;20506;-72
2021/09/24 10:18:48;;;;;;;13.50;2.90;;;16.70;99.90;;;;;;5054494;28;20807;-72
2021/09/24 10:21:16;;;;;;;8.60;2.60;;;16.80;99.90;;;;;;5054555;28;20462;-72
2021/09/24 10:23:43;;;;;;;13.80;3.27;;;16.90;99.90;;;;;;5053932;28;20459;-72
2021/09/24 10:26:17;;;;;;;11.37;3.30;;;16.90;99.90;;;;;;5053278;28;20452;-72
2021/09/24 10:28:46;;;;;;;14.93;3.13;;;16.90;99.90;;;;;;5054305;28;20448;-71
2021/09/24 10:31:18;;;;;;;13.97;2.63;;;16.90;99.90;;;;;;5054597;28;20459;-71
2021/09/24 10:33:55;;;;;;;11.73;2.90;;;17.10;99.90;;;;;;5054049;28;20463;-71
2021/09/24 10:36:48;;;;;;;9.00;2.87;;;17.10;99.90;;;;;;5054463;28;20450;-71
2021/09/24 10:39:35;;;;;;;6.50;2.30;;;17.20;99.90;;;;;;5054441;28;20455;-71
2021/09/24 10:42:21;;;;;;;14.50;3.30;;;17.30;99.90;;;;;;5054783;28;20786;-72
2021/09/24 10:45:00;;;;;;;17.93;3.20;;;17.40;99.90;;;;;;5053679;28;20513;-71
2021/09/24 10:47:55;;;;;;;14.60;3.60;;;17.40;99.90;;;;;;5053748;28;20900;-74
2021/09/24 10:50:50;;;;;;;11.63;2.93;;;17.10;99.90;;;;;;5053968;28;20896;-72
2021/09/24 10:53:21;;;;;;;13.60;3.23;;;17.00;99.90;;;;;;5053597;28;20494;-72
2021/09/24 10:56:10;;;;;;;14.23;3.50;;;17.00;99.90;;;;;;5053972;28;20808;-72
2021/09/24 10:58:40;;;;;;;11.10;2.30;;;17.00;99.90;;;;;;5053768;28;20585;-71
2021/09/24 11:01:11;;;;;;;8.13;2.47;;;17.10;99.90;;;;;;5053583;28;20937;-71
2021/09/24 11:03:52;;;;;;;10.40;2.60;;;17.10;99.90;;;;;;5054429;28;20742;-72
2021/09/24 11:06:34;;;;;;;15.73;3.00;;;17.20;99.90;;;;;;5053882;28;20527;-71
2021/09/24 11:09:02;;;;;;;8.90;2.13;;;17.20;99.90;;;;;;5055379;28;20908;-72
2021/09/24 11:11:31;;;;;;;11.80;2.20;;;17.20;99.90;;;;;;5055816;28;20768;-72
2021/09/24 11:14:02;;;;;;;9.10;2.67;;;17.20;99.90;;;;;;5054619;28;20479;-71
2021/09/24 11:16:44;;;;;;;9.27;3.00;;;17.10;99.90;;;;;;5053638;28;20570;-73
2021/09/24 11:19:32;;;;;;;8.33;2.40;;;17.00;99.90;;;;;;5054271;28;20531;-72
2021/09/24 11:22:17;;;;;;;7.83;2.30;;;16.90;99.90;;;;;;5054111;28;20454;-71
2021/09/24 11:24:48;;;;;;;9.50;1.97;;;16.90;99.90;;;;;;5053886;28;20458;-71
2021/09/24 11:27:16;;;;;;;10.20;2.77;;;16.80;99.90;;;;;;5054126;28;20451;-72
2021/09/24 11:30:19;;;;;;;7.87;2.87;;;16.70;99.90;;;;;;5053789;28;20466;-72
2021/09/24 11:32:48;;;;;;;11.93;2.73;;;16.70;99.90;;;;;;5053789;28;20554;-72
2021/09/24 11:35:19;;;;;;;6.37;2.00;;;16.70;99.90;;;;;;5054266;28;20466;-71
2021/09/24 11:37:47;;;;;;;6.50;1.70;;;16.70;99.90;;;;;;5055340;28;20908;-72
2021/09/24 11:40:16;;;;;;;4.47;2.20;;;16.70;99.90;;;;;;5057611;28;20820;-72
2021/09/24 11:42:46;;;;;;;6.13;2.43;;;16.70;99.90;;;;;;5057280;28;20772;-72
2021/09/24 11:45:18;;;;;;;5.47;2.33;;;16.70;99.90;;;;;;5057705;28;20775;-71
2021/09/24 11:47:46;;;;;;;8.70;2.40;;;16.70;99.90;;;;;;5058192;28;20795;-71
2021/09/24 11:50:15;;;;;;;4.57;1.97;;;16.70;99.90;;;;;;5057341;28;20787;-72
2021/09/24 11:52:47;;;;;;;6.10;2.30;;;16.70;99.90;;;;;;5057336;28;20490;-73
2021/09/24 11:55:17;;;;;;;4.37;2.17;;;16.70;99.90;;;;;;5057817;28;20537;-73
2021/09/24 11:57:58;;;;;;;4.13;1.77;;;16.70;99.90;;;;;;5057457;28;20440;-72
2021/09/24 12:00:29;;;;;;;4.77;2.13;;;16.60;99.90;;;;;;5056963;28;20444;-72
2021/09/24 12:03:09;;;;;;;5.23;2.10;;;16.70;99.90;;;;;;5057254;28;20439;-73
2021/09/24 12:05:36;;;;;;;4.03;1.73;;;16.60;99.90;;;;;;5056897;28;20541;-75
2021/09/24 12:08:03;;;;;;;5.00;2.07;;;16.60;99.90;;;;;;5056848;28;20914;-74
2021/09/24 12:10:31;;;;;;;4.80;1.80;;;16.70;99.90;;;;;;5057001;28;20466;-74
2021/09/24 12:13:08;;;;;;;5.97;2.47;;;16.80;99.90;;;;;;5056855;28;20504;-74
2021/09/24 12:15:58;;;;;;;14.20;2.60;;;17.00;99.90;;;;;;5056368;28;20487;-74
2021/09/24 12:18:43;;;;;;;7.70;2.00;;;17.10;99.90;;;;;;5056996;28;20451;-74
2021/09/24 12:21:11;;;;;;;6.83;2.17;;;17.20;99.90;;;;;;5056966;28;20489;-73
2021/09/24 12:23:38;;;;;;;11.93;2.00;;;17.20;99.90;;;;;;5056472;28;20791;-73
2021/09/24 12:26:07;;;;;;;3.13;1.37;;;17.20;99.90;;;;;;5056780;28;20479;-74
2021/09/24 12:28:35;;;;;;;7.03;1.80;;;17.10;99.90;;;;;;5056981;28;20463;-73
2021/09/24 12:31:04;;;;;;;2.60;1.43;;;17.10;99.90;;;;;;5056796;28;20531;-75
2021/09/24 12:33:30;;;;;;;3.60;1.47;;;17.10;99.90;;;;;;5056727;28;20812;-74
2021/09/24 12:35:59;;;;;;;4.20;1.77;;;17.00;99.90;;;;;;5056472;28;20800;-74
2021/09/24 12:38:27;;;;;;;4.60;1.93;;;17.00;99.90;;;;;;5056502;28;20455;-73
2021/09/24 12:41:08;;;;;;;7.23;1.70;;;17.00;99.90;;;;;;5056648;28;20830;-72
2021/09/24 12:43:36;;;;;;;5.33;1.70;;;17.10;99.90;;;;;;5056353;28;20466;-74
2021/09/24 12:46:05;;;;;;;6.10;1.47;;;17.10;99.90;;;;;;5056163;28;20460;-75